createdAt,value
2018-04-02T00:02:19.645Z,86.89
2018-04-02T00:04:47.177Z,87.02
2018-04-02T00:07:14.714Z,87.14
2018-04-02T00:09:42.248Z,87.05
2018-04-02T00:12:09.900Z,87.21
2018-04-02T00:14:37.424Z,87.28
2018-04-02T00:17:05.020Z,87.21
2018-04-02T00:19:32.583Z,87.21
2018-04-02T00:22:00.112Z,87.30
2018-04-02T00:24:27.700Z,87.46
2018-04-02T00:26:55.230Z,87.43
2018-04-02T00:29:22.752Z,87.56
2018-04-02T00:31:50.293Z,87.50
2018-04-02T00:34:17.953Z,87.34
2018-04-02T00:36:45.480Z,87.42
2018-04-02T00:39:13.029Z,87.48
2018-04-02T00:41:40.549Z,87.41
2018-04-02T00:44:08.078Z,87.34
2018-04-02T00:46:35.648Z,87.43
2018-04-02T00:49:03.177Z,87.29
2018-04-02T00:51:30.722Z,87.44
2018-04-02T00:53:58.324Z,87.17
2018-04-02T00:56:25.841Z,87.22
2018-04-02T00:58:53.367Z,87.26
2018-04-02T01:01:20.898Z,87.55
2018-04-02T01:03:48.423Z,87.51
2018-04-02T01:06:15.990Z,87.62
2018-04-02T01:08:43.517Z,87.83
2018-04-02T01:11:11.134Z,87.64
2018-04-02T01:13:38.648Z,87.80
2018-04-02T01:16:06.256Z,88.16
2018-04-02T01:18:33.813Z,88.16
2018-04-02T01:21:01.375Z,88.21
2018-04-02T01:23:28.936Z,88.14
2018-04-02T01:25:56.467Z,88.21
2018-04-02T01:28:23.991Z,88.31
2018-04-02T01:30:51.513Z,88.10
2018-04-02T01:33:19.044Z,88.20
2018-04-02T01:35:46.632Z,88.11
2018-04-02T01:38:14.192Z,88.09
2018-04-02T01:40:41.753Z,88.06
2018-04-02T01:43:09.284Z,88.05
2018-04-02T01:45:36.801Z,88.17
2018-04-02T01:48:04.433Z,88.23
2018-04-02T01:50:31.991Z,88.13
2018-04-02T01:52:59.526Z,88.13
2018-04-02T01:55:27.053Z,87.92
2018-04-02T01:57:54.578Z,88.04
2018-04-02T02:00:22.099Z,87.90
2018-04-02T02:02:49.632Z,87.82
2018-04-02T02:05:17.160Z,87.81
2018-04-02T02:07:44.810Z,87.82
2018-04-02T02:10:12.338Z,87.49
2018-04-02T02:12:39.865Z,87.41
2018-04-02T02:15:07.418Z,87.50
2018-04-02T02:17:35.049Z,87.42
2018-04-02T02:20:02.612Z,87.42
2018-04-02T02:22:30.138Z,87.31
2018-04-02T02:24:57.665Z,87.34
2018-04-02T02:27:25.331Z,87.47
2018-04-02T02:29:52.845Z,87.63
2018-04-02T02:32:20.366Z,87.49
2018-04-02T02:34:47.892Z,87.54
2018-04-02T02:37:15.431Z,87.59
2018-04-02T02:39:42.959Z,87.49
2018-04-02T02:42:10.475Z,87.67
2018-04-02T02:44:38.005Z,87.76
2018-04-02T02:47:05.530Z,87.86
2018-04-02T02:49:33.125Z,87.88
2018-04-02T02:52:00.640Z,87.85
2018-04-02T02:54:28.201Z,88.03
2018-04-02T02:56:55.842Z,88.12
2018-04-02T02:59:23.402Z,87.85
2018-04-02T03:01:50.926Z,87.90
2018-04-02T03:04:18.451Z,88.07
2018-04-02T03:06:45.985Z,88.15
2018-04-02T03:09:13.503Z,88.05
2018-04-02T03:11:41.026Z,88.10
2018-04-02T03:14:08.558Z,88.38
2018-04-02T03:16:36.118Z,88.33
2018-04-02T03:19:03.678Z,88.29
2018-04-02T03:21:31.195Z,88.21
2018-04-02T03:23:58.755Z,88.36
2018-04-02T03:26:26.425Z,88.56
2018-04-02T03:28:54.085Z,88.65
2018-04-02T03:31:21.615Z,88.67
2018-04-02T03:33:49.137Z,88.73
2018-04-02T03:36:16.658Z,88.96
2018-04-02T03:38:44.217Z,88.89
2018-04-02T03:41:11.782Z,89.05
2018-04-02T03:43:39.440Z,89.23
2018-04-02T03:46:07.108Z,89.42
2018-04-02T03:48:34.630Z,89.39
2018-04-02T03:51:02.158Z,89.46
2018-04-02T03:53:29.683Z,89.49
2018-04-02T03:55:57.211Z,89.52
2018-04-02T03:58:24.747Z,89.85
2018-04-02T04:00:52.286Z,89.84
2018-04-02T04:03:19.821Z,89.91
2018-04-02T04:05:47.377Z,90.03
2018-04-02T04:08:14.897Z,90.29
2018-04-02T04:10:42.485Z,90.22
2018-04-02T04:13:10.005Z,90.32
2018-04-02T04:15:37.618Z,90.36
2018-04-02T04:18:05.140Z,90.44
2018-04-02T04:20:32.681Z,90.58
2018-04-02T04:23:00.233Z,90.66
2018-04-02T04:25:27.760Z,90.60
2018-04-02T04:27:55.276Z,90.53
2018-04-02T04:30:22.809Z,90.63
2018-04-02T04:32:50.322Z,90.67
2018-04-02T04:35:17.882Z,90.64
2018-04-02T04:37:45.413Z,90.58
2018-04-02T04:40:12.981Z,90.65
2018-04-02T04:42:40.535Z,90.80
2018-04-02T04:45:08.063Z,90.91
2018-04-02T04:47:35.581Z,90.97
2018-04-02T04:50:03.151Z,90.88
2018-04-02T04:52:30.647Z,90.99
2018-04-02T04:54:58.157Z,91.01
2018-04-02T04:57:25.687Z,90.93
2018-04-02T04:59:53.231Z,90.90
2018-04-02T05:02:20.752Z,90.74
2018-04-02T05:04:48.270Z,90.74
2018-04-02T05:07:15.797Z,90.75
2018-04-02T05:09:43.322Z,90.54
2018-04-02T05:12:10.853Z,90.45
2018-04-02T05:14:38.385Z,90.38
2018-04-02T05:17:05.926Z,90.20
2018-04-02T05:19:33.449Z,90.04
2018-04-02T05:22:00.979Z,89.96
2018-04-02T05:24:28.509Z,89.88
2018-04-02T05:26:56.051Z,89.93
2018-04-02T05:29:23.600Z,89.66
2018-04-02T05:31:51.129Z,89.51
2018-04-02T05:34:18.657Z,89.29
2018-04-02T05:36:46.194Z,89.25
2018-04-02T05:39:13.735Z,89.18
2018-04-02T05:41:41.264Z,89.02
2018-04-02T05:44:08.785Z,88.84
2018-04-02T05:46:36.429Z,88.85
2018-04-02T05:49:03.955Z,88.66
2018-04-02T05:51:31.478Z,88.44
2018-04-02T05:53:59.005Z,88.05
2018-04-02T05:56:26.542Z,88.31
2018-04-02T05:58:54.219Z,87.79
2018-04-02T06:01:21.745Z,87.80
2018-04-02T06:03:49.278Z,87.47
2018-04-02T06:06:16.906Z,87.06
2018-04-02T06:08:44.429Z,86.83
2018-04-02T06:11:11.950Z,87.07
2018-04-02T06:13:39.479Z,86.68
2018-04-02T06:16:07.162Z,86.30
2018-04-02T06:18:34.788Z,85.78
2018-04-02T06:21:02.321Z,85.64
2018-04-02T06:23:29.909Z,85.00
2018-04-02T06:25:57.473Z,85.10
2018-04-02T06:28:25.008Z,84.43
2018-04-02T06:30:52.532Z,84.40
2018-04-02T06:33:20.046Z,84.08
2018-04-02T06:35:47.624Z,84.20
2018-04-02T06:38:15.146Z,84.35
2018-04-02T06:40:42.668Z,83.50
2018-04-02T06:43:10.200Z,83.48
2018-04-02T06:45:37.737Z,83.68
2018-04-02T06:48:05.250Z,83.04
2018-04-02T06:50:32.884Z,83.83
2018-04-02T06:53:00.453Z,83.17
2018-04-02T06:55:27.970Z,82.84
2018-04-02T06:57:55.558Z,81.55
2018-04-02T07:00:23.091Z,81.20
2018-04-02T07:02:50.701Z,80.21
2018-04-02T07:05:18.268Z,80.26
2018-04-02T07:07:45.841Z,78.55
2018-04-02T07:10:13.423Z,78.50
2018-04-02T07:12:41.004Z,75.71
2018-04-02T07:15:08.560Z,74.62
2018-04-02T07:17:36.106Z,74.11
2018-04-02T07:20:03.635Z,71.31
2018-04-02T07:22:31.158Z,72.02
2018-04-02T07:24:58.681Z,72.62
2018-04-02T07:27:26.218Z,71.91
2018-04-02T07:29:53.848Z,70.78
2018-04-02T07:32:21.500Z,68.77
2018-04-02T07:34:49.024Z,66.25
2018-04-02T07:37:16.563Z,65.87
2018-04-02T07:39:44.101Z,65.95
2018-04-02T07:42:11.739Z,66.12
2018-04-02T07:44:39.267Z,65.62
2018-04-02T07:47:06.803Z,66.04
2018-04-02T07:49:34.327Z,65.15
2018-04-02T07:52:01.848Z,61.99
2018-04-02T07:54:29.377Z,59.04
2018-04-02T07:56:56.907Z,60.05
2018-04-02T07:59:24.425Z,61.83
2018-04-02T08:01:51.953Z,59.70
2018-04-02T08:04:19.548Z,60.71
2018-04-02T08:06:47.057Z,56.08
2018-04-02T08:09:14.695Z,56.97
2018-04-02T08:11:42.221Z,58.68
2018-04-02T08:14:09.755Z,59.45
2018-04-02T08:16:37.284Z,57.31
2018-04-02T08:19:04.805Z,56.36
2018-04-02T08:21:32.392Z,53.82
2018-04-02T08:23:59.953Z,55.10
2018-04-02T08:26:27.514Z,53.16
2018-04-02T08:28:55.051Z,52.08
2018-04-02T08:31:22.598Z,53.46
2018-04-02T08:33:50.116Z,50.67
2018-04-02T08:36:17.753Z,51.35
2018-04-02T08:38:45.360Z,49.92
2018-04-02T08:41:12.841Z,51.32
2018-04-02T08:43:40.370Z,52.88
2018-04-02T08:46:07.897Z,52.74
2018-04-02T08:48:35.412Z,50.24
2018-04-02T08:51:02.943Z,49.41
2018-04-02T08:53:30.485Z,47.54
2018-04-02T08:55:58.130Z,48.77
2018-04-02T08:58:25.653Z,50.77
2018-04-02T09:00:53.181Z,50.87
2018-04-02T09:03:20.816Z,50.17
2018-04-02T09:05:48.341Z,50.52
2018-04-02T09:08:15.866Z,48.51
2018-04-02T09:10:43.429Z,48.28
2018-04-02T09:13:11.012Z,49.71
2018-04-02T09:15:38.587Z,50.50
2018-04-02T09:18:06.121Z,49.87
2018-04-02T09:20:34.071Z,49.61
2018-04-02T09:23:01.630Z,49.26
2018-04-02T09:25:29.160Z,46.58
2018-04-02T09:27:56.704Z,44.89
2018-04-02T09:30:24.278Z,45.17
2018-04-02T09:32:51.851Z,46.18
2018-04-02T09:35:19.381Z,47.80
2018-04-02T09:37:46.910Z,44.75
2018-04-02T09:40:14.456Z,40.84
2018-04-02T09:42:42.005Z,40.27
2018-04-02T09:45:09.543Z,37.84
2018-04-02T09:47:37.063Z,38.10
2018-04-02T09:50:04.591Z,39.87
2018-04-02T09:52:32.113Z,38.56
2018-04-02T09:54:59.637Z,35.53
2018-04-02T09:57:27.160Z,34.98
2018-04-02T09:59:54.706Z,32.65
2018-04-02T10:02:22.217Z,33.34
2018-04-02T10:04:49.877Z,33.04
2018-04-02T10:07:17.302Z,33.16
2018-04-02T10:09:44.826Z,34.67
2018-04-02T10:12:12.347Z,33.11
2018-04-02T10:14:39.875Z,34.81
2018-04-02T10:17:07.408Z,36.77
2018-04-02T10:19:34.965Z,32.71
2018-04-02T10:22:02.486Z,33.54
2018-04-02T10:24:30.770Z,35.66
2018-04-02T10:26:58.285Z,34.18
2018-04-02T10:29:25.922Z,35.46
2018-04-02T10:31:53.450Z,32.94
2018-04-02T10:34:21.582Z,31.64
2018-04-02T10:36:49.108Z,32.85
2018-04-02T10:39:17.557Z,33.53
2018-04-02T10:41:45.155Z,36.81
2018-04-02T10:44:12.669Z,34.46
2018-04-02T10:46:40.238Z,32.85
2018-04-02T10:49:07.833Z,32.10
2018-04-02T10:51:35.356Z,33.52
2018-04-02T10:54:02.883Z,33.82
2018-04-02T10:56:30.411Z,35.04
2018-04-02T10:58:59.490Z,35.30
2018-04-02T11:01:27.036Z,36.18
2018-04-02T11:03:54.558Z,38.84
2018-04-02T11:06:22.187Z,40.51
2018-04-02T11:08:49.746Z,41.29
2018-04-02T11:11:17.311Z,39.94
2018-04-02T11:13:44.835Z,41.83
2018-04-02T11:16:12.359Z,40.58
2018-04-02T11:18:39.886Z,40.76
2018-04-02T11:21:07.405Z,43.91
2018-04-02T11:23:34.958Z,41.97
2018-04-02T11:26:02.498Z,42.38
2018-04-02T11:28:30.017Z,41.75
2018-04-02T11:30:57.550Z,43.09
2018-04-02T11:33:25.077Z,43.44
2018-04-02T11:35:52.760Z,44.58
2018-04-02T11:38:20.365Z,42.92
2018-04-02T11:40:47.880Z,43.50
2018-04-02T11:43:15.408Z,43.50
2018-04-02T11:45:42.941Z,44.11
2018-04-02T11:48:10.507Z,44.83
2018-04-02T11:50:38.032Z,44.41
2018-04-02T11:53:05.583Z,45.44
2018-04-02T11:55:33.131Z,45.89
2018-04-02T11:58:00.706Z,45.54
2018-04-02T12:00:28.254Z,46.03
2018-04-02T12:02:55.809Z,46.53
2018-04-02T12:05:23.417Z,46.38
2018-04-02T12:07:50.934Z,46.20
2018-04-02T12:10:18.463Z,47.30
2018-04-02T12:12:45.982Z,46.58
2018-04-02T12:15:13.511Z,46.83
2018-04-02T12:17:41.044Z,45.76
2018-04-02T12:20:08.614Z,47.94
2018-04-02T12:22:36.136Z,47.25
2018-04-02T12:25:03.793Z,45.89
2018-04-02T12:27:31.460Z,47.17
2018-04-02T12:29:58.978Z,47.21
2018-04-02T12:32:26.539Z,46.77
2018-04-02T12:34:54.075Z,46.86
2018-04-02T12:37:21.595Z,46.30
2018-04-02T12:39:49.125Z,45.86
2018-04-02T12:42:16.678Z,46.82
2018-04-02T12:44:44.197Z,46.67
2018-04-02T12:47:11.833Z,46.74
2018-04-02T12:49:39.365Z,46.88
2018-04-02T12:52:07.466Z,46.66
2018-04-02T12:54:34.994Z,46.51
2018-04-02T12:57:02.585Z,47.60
2018-04-02T12:59:30.107Z,47.42
2018-04-02T13:01:57.629Z,47.00
2018-04-02T13:04:25.163Z,46.82
2018-04-02T13:06:52.704Z,47.37
2018-04-02T13:09:20.229Z,46.60
2018-04-02T13:11:47.760Z,47.00
2018-04-02T13:14:15.292Z,46.86
2018-04-02T13:16:42.813Z,47.41
2018-04-02T13:19:10.353Z,46.53
2018-04-02T13:21:37.869Z,46.75
2018-04-02T13:24:05.394Z,46.62
2018-04-02T13:26:33.006Z,47.33
2018-04-02T13:29:00.535Z,47.26
2018-04-02T13:31:28.131Z,46.67
2018-04-02T13:33:55.657Z,47.23
2018-04-02T13:36:23.174Z,47.47
2018-04-02T13:38:50.696Z,47.38
2018-04-02T13:41:18.285Z,47.86
2018-04-02T13:43:45.806Z,47.79
2018-04-02T13:46:13.382Z,48.00
2018-04-02T13:48:40.907Z,47.53
2018-04-02T13:51:08.485Z,47.75
2018-04-02T13:53:36.047Z,47.39
2018-04-02T13:56:03.588Z,47.70
2018-04-02T13:58:31.126Z,46.89
2018-04-02T14:00:58.681Z,47.52
2018-04-02T14:03:26.214Z,47.36
2018-04-02T14:05:53.746Z,48.20
2018-04-02T14:08:21.285Z,47.24
2018-04-02T14:10:48.922Z,47.96
2018-04-02T14:13:16.509Z,48.08
2018-04-02T14:15:44.041Z,47.25
2018-04-02T14:18:11.580Z,47.44
2018-04-02T14:20:39.113Z,47.59
2018-04-02T14:23:06.694Z,48.03
2018-04-02T14:25:34.347Z,47.84
2018-04-02T14:28:01.872Z,48.19
2018-04-02T14:30:29.394Z,47.54
2018-04-02T14:32:57.417Z,47.73
2018-04-02T14:35:24.942Z,48.32
2018-04-02T14:37:52.479Z,47.69
2018-04-02T14:40:20.007Z,47.28
2018-04-02T14:42:47.569Z,47.45
2018-04-02T14:45:15.093Z,48.00
2018-04-02T14:47:42.618Z,48.17
2018-04-02T14:50:10.152Z,47.57
2018-04-02T14:52:37.717Z,47.43
2018-04-02T14:55:05.238Z,47.26
2018-04-02T14:57:32.757Z,47.63
2018-04-02T15:00:00.390Z,47.78
2018-04-02T15:02:27.921Z,47.68
2018-04-02T15:04:55.441Z,48.04
2018-04-02T15:07:22.973Z,48.28
2018-04-02T15:09:50.509Z,48.57
2018-04-02T15:12:18.055Z,49.18
2018-04-02T15:14:45.619Z,48.21
2018-04-02T15:17:13.142Z,48.32
2018-04-02T15:19:40.694Z,49.55
2018-04-02T15:22:08.327Z,49.40
2018-04-02T15:24:35.889Z,48.67
2018-04-02T15:27:03.412Z,48.25
2018-04-02T15:29:31.341Z,48.72
2018-04-02T15:31:58.875Z,48.58
2018-04-02T15:34:26.403Z,48.46
2018-04-02T15:36:54.651Z,48.81
2018-04-02T15:39:22.195Z,48.73
2018-04-02T15:41:49.724Z,48.56
2018-04-02T15:44:18.145Z,48.28
2018-04-02T15:46:45.695Z,48.74
2018-04-02T15:49:13.325Z,49.09
2018-04-02T15:51:40.854Z,49.13
2018-04-02T15:54:08.445Z,48.36
2018-04-02T15:56:35.972Z,48.30
2018-04-02T15:59:03.503Z,49.76
2018-04-02T16:01:31.030Z,49.08
2018-04-02T16:03:58.554Z,49.50
2018-04-02T16:06:26.146Z,48.64
2018-04-02T16:08:53.670Z,48.71
2018-04-02T16:11:21.205Z,49.10
2018-04-02T16:13:48.738Z,49.21
2018-04-02T16:16:16.288Z,48.67
2018-04-02T16:18:43.806Z,49.10
2018-04-02T16:21:11.335Z,49.01
2018-04-02T16:23:38.860Z,48.69
2018-04-02T17:48:03.381Z,52.56
2018-04-02T17:50:30.967Z,52.51
2018-04-02T17:52:58.504Z,52.77
2018-04-02T17:55:26.018Z,52.74
2018-04-02T17:57:53.563Z,52.82
2018-04-02T18:00:21.104Z,52.55
2018-04-02T18:02:48.638Z,52.82
2018-04-02T18:05:16.204Z,52.90
2018-04-02T18:07:43.758Z,52.87
2018-04-02T18:10:11.272Z,52.74
2018-04-02T18:12:39.223Z,52.93
2018-04-02T18:15:06.746Z,52.92
2018-04-02T18:17:34.269Z,53.15
2018-04-02T18:20:01.902Z,53.82
2018-04-02T18:22:29.443Z,52.99
2018-04-02T18:24:56.978Z,53.20
2018-04-02T18:27:24.502Z,53.91
2018-04-02T18:29:52.021Z,53.47
2018-04-02T18:32:19.595Z,53.95
2018-04-02T18:34:47.127Z,53.61
2018-04-02T18:37:14.643Z,53.78
2018-04-02T18:39:42.269Z,53.82
2018-04-02T18:42:09.792Z,54.06
2018-04-02T18:44:37.335Z,54.04
2018-04-02T18:47:04.876Z,54.21
2018-04-02T18:49:32.409Z,54.46
2018-04-02T18:51:59.937Z,54.22
2018-04-02T18:54:27.463Z,54.46
2018-04-02T18:56:54.988Z,54.67
2018-04-02T18:59:22.506Z,54.81
2018-04-02T19:01:50.042Z,55.04
2018-04-02T19:04:17.566Z,54.63
2018-04-02T19:06:45.096Z,54.96
2018-04-02T19:09:12.641Z,55.07
2018-04-02T19:11:40.181Z,55.07
2018-04-02T19:14:07.727Z,55.22
2018-04-02T19:16:35.254Z,55.08
2018-04-02T19:19:02.789Z,55.00
2018-04-02T19:21:30.314Z,55.25
2018-04-02T19:23:57.865Z,55.46
2018-04-02T19:26:25.396Z,55.40
2018-04-02T19:28:52.962Z,55.70
2018-04-02T19:31:20.480Z,55.75
2018-04-02T19:33:48.080Z,55.82
2018-04-02T19:36:15.612Z,55.93
2018-04-02T19:38:43.132Z,56.01
2018-04-02T19:41:10.664Z,55.81
2018-04-02T19:43:38.201Z,55.66
2018-04-02T19:46:05.733Z,56.08
2018-04-02T19:48:33.265Z,55.92
2018-04-02T19:51:00.803Z,56.11
2018-04-02T19:53:28.326Z,56.27
2018-04-02T19:55:55.871Z,56.22
2018-04-02T19:58:23.478Z,56.29
2018-04-02T20:00:51.003Z,56.55
2018-04-02T20:03:18.581Z,56.57
2018-04-02T20:05:46.120Z,56.58
2018-04-02T20:08:13.673Z,56.78
2018-04-02T20:10:41.295Z,56.64
2018-04-02T20:13:08.840Z,56.71
2018-04-02T20:15:36.362Z,56.63
2018-04-02T20:18:03.956Z,56.85
2018-04-02T20:20:33.318Z,56.82
2018-04-02T20:23:00.937Z,56.93
2018-04-02T20:25:28.414Z,56.77
2018-04-02T20:27:55.942Z,56.99
2018-04-02T20:30:23.522Z,57.11
2018-04-02T20:32:51.098Z,56.94
2018-04-02T20:35:18.669Z,57.30
2018-04-02T20:37:46.211Z,57.11
2018-04-02T20:40:13.778Z,57.11
2018-04-02T20:42:41.338Z,57.20
2018-04-02T20:45:08.869Z,57.25
2018-04-02T20:47:37.245Z,57.50
2018-04-02T20:50:04.777Z,57.55
2018-04-02T20:52:32.297Z,57.57
2018-04-02T20:54:59.849Z,57.57
2018-04-02T20:57:27.375Z,57.53
2018-04-02T20:59:54.906Z,57.60
2018-04-02T21:02:22.429Z,57.52
2018-04-02T21:04:50.054Z,57.80
2018-04-02T21:07:17.595Z,58.05
2018-04-02T21:09:45.148Z,58.06
2018-04-02T21:12:12.703Z,58.11
2018-04-02T21:14:40.242Z,58.11
2018-04-02T21:17:07.847Z,58.25
2018-04-02T21:19:35.487Z,58.37
2018-04-02T21:22:03.033Z,58.57
2018-04-02T21:24:30.561Z,58.67
2018-04-02T21:26:58.088Z,58.79
2018-04-02T21:29:25.623Z,58.97
2018-04-02T21:31:53.316Z,59.00
2018-04-02T21:34:20.874Z,59.30
2018-04-02T21:36:48.405Z,59.10
2018-04-02T21:39:16.006Z,59.25
2018-04-02T21:41:43.528Z,59.43
2018-04-02T21:44:11.056Z,59.43
2018-04-02T21:46:38.647Z,59.45
2018-04-02T21:49:06.185Z,59.72
2018-04-02T21:51:33.722Z,59.68
2018-04-02T21:54:01.258Z,59.72
2018-04-02T21:56:28.778Z,59.92
2018-04-02T21:58:56.298Z,59.92
2018-04-02T22:01:23.828Z,60.07
2018-04-02T22:03:51.357Z,59.91
2018-04-02T22:06:30.801Z,60.10
2018-04-02T22:08:58.322Z,60.11
2018-04-02T22:11:25.889Z,60.11
2018-04-02T22:13:53.443Z,60.26
2018-04-02T22:16:21.035Z,60.05
2018-04-02T22:18:48.557Z,60.10
2018-04-02T22:21:16.085Z,60.29
2018-04-02T22:23:43.644Z,60.17
2018-04-02T22:26:11.172Z,60.10
2018-04-02T22:28:39.579Z,60.05
2018-04-02T22:31:07.116Z,60.03
2018-04-02T22:33:34.640Z,60.20
2018-04-02T22:36:02.193Z,60.18
2018-04-02T22:38:29.722Z,60.24
2018-04-02T22:40:57.248Z,60.18
2018-04-02T22:43:24.837Z,60.17
2018-04-02T22:45:52.401Z,60.35
2018-04-02T22:48:19.918Z,60.35
2018-04-02T22:50:47.485Z,60.52
2018-04-02T22:53:15.082Z,60.52
2018-04-02T22:55:42.606Z,60.52
2018-04-02T22:58:10.141Z,60.64
2018-04-02T23:00:37.661Z,60.68
2018-04-02T23:03:05.189Z,60.85
2018-04-02T23:05:32.743Z,60.86
2018-04-02T23:08:00.263Z,60.95
2018-04-02T23:10:27.790Z,61.01
2018-04-02T23:12:55.322Z,61.03
2018-04-02T23:15:22.851Z,61.10
2018-04-02T23:17:50.374Z,61.12
2018-04-02T23:20:17.949Z,61.27
2018-04-02T23:22:52.286Z,61.18
2018-04-02T23:25:19.807Z,61.23
2018-04-02T23:27:47.365Z,61.39
2018-04-02T23:30:14.928Z,61.27
2018-04-02T23:32:42.457Z,61.35
2018-04-02T23:35:09.989Z,61.51
2018-04-02T23:37:37.513Z,61.47
2018-04-02T23:40:05.034Z,61.37
2018-04-02T23:42:32.566Z,61.57
2018-04-02T23:45:00.188Z,61.73
2018-04-02T23:47:27.714Z,61.77
2018-04-02T23:49:55.242Z,61.68
2018-04-02T23:52:22.766Z,61.80
2018-04-02T23:54:50.295Z,61.84
2018-04-02T23:57:17.886Z,61.89
2018-04-02T23:59:45.421Z,61.95
